Time;durP1;ratioP1;P1;durP2;ratioP2;P2;SDS_P1;SDS_P2;PMS_P1;PMS_P2;Temp;Humidity;BMP_temperature;BMP_pressure;BME280_temperature;BME280_humidity;BME280_pressure;Samples;Min_cycle;Max_cycle;Signal;HPM_P1;HPM_P2
2023/01/06 00:01:18;;;;;;;17.00;6.93;;;7.60;99.90;;;;;;4861003;29;20246;-81
2023/01/06 00:03:47;;;;;;;20.07;6.83;;;7.60;99.90;;;;;;4860489;29;20605;-81
2023/01/06 00:06:13;;;;;;;18.40;7.47;;;7.60;99.90;;;;;;4860597;29;20534;-82
2023/01/06 00:08:39;;;;;;;22.03;7.93;;;7.60;99.90;;;;;;4861194;29;20176;-82
2023/01/06 00:11:06;;;;;;;25.53;8.40;;;7.70;99.90;;;;;;4860052;29;20628;-82
2023/01/06 00:13:32;;;;;;;19.97;7.53;;;7.70;99.90;;;;;;4861012;29;20204;-81
2023/01/06 00:16:01;;;;;;;20.53;7.80;;;7.70;99.90;;;;;;4855430;29;20257;-81
2023/01/06 00:18:27;;;;;;;18.20;7.93;;;7.70;99.90;;;;;;4842650;29;20517;-81
2023/01/06 00:20:53;;;;;;;24.97;7.17;;;7.70;99.90;;;;;;4846171;29;20221;-82
2023/01/06 00:23:18;;;;;;;20.70;7.77;;;7.70;99.90;;;;;;4860936;29;20632;-80
2023/01/06 00:25:50;;;;;;;22.53;7.57;;;7.80;99.90;;;;;;4860987;29;20192;-81
2023/01/06 00:28:16;;;;;;;29.27;7.73;;;7.80;99.90;;;;;;4861116;29;20184;-81
2023/01/06 00:30:42;;;;;;;21.97;7.80;;;7.80;99.90;;;;;;4860241;29;20212;-82
2023/01/06 00:33:07;;;;;;;19.88;7.50;;;7.80;99.90;;;;;;4860931;29;20184;-81
2023/01/06 00:35:33;;;;;;;16.27;6.73;;;7.90;99.90;;;;;;4861008;29;20198;-81
2023/01/06 00:37:58;;;;;;;22.17;7.70;;;7.90;99.90;;;;;;4863582;29;20529;-81
2023/01/06 00:40:24;;;;;;;30.37;8.33;;;7.90;99.90;;;;;;4863720;29;20211;-81
2023/01/06 00:42:50;;;;;;;17.40;7.27;;;7.90;99.90;;;;;;4863929;29;20190;-81
2023/01/06 00:45:15;;;;;;;25.40;7.80;;;7.90;99.90;;;;;;4864064;29;20185;-81
2023/01/06 00:47:41;;;;;;;23.08;7.25;;;7.80;99.90;;;;;;4863074;29;20223;-81
2023/01/06 00:50:07;;;;;;;26.10;7.67;;;7.80;99.90;;;;;;4864094;29;20602;-81
2023/01/06 00:52:33;;;;;;;23.20;7.23;;;7.80;99.90;;;;;;4863323;29;20728;-81
2023/01/06 00:54:59;;;;;;;21.93;7.07;;;7.80;99.90;;;;;;4863913;29;20184;-82
2023/01/06 00:57:25;;;;;;;26.03;7.83;;;7.90;99.90;;;;;;4863701;29;20293;-82
2023/01/06 00:59:50;;;;;;;19.57;7.30;;;7.80;99.90;;;;;;4863815;29;20173;-81
2023/01/06 01:02:16;;;;;;;17.57;7.50;;;7.80;99.90;;;;;;4863547;29;20185;-81
2023/01/06 01:04:42;;;;;;;19.20;6.60;;;7.80;99.90;;;;;;4863690;29;20181;-82
2023/01/06 01:07:10;;;;;;;23.37;8.17;;;7.80;99.90;;;;;;4863695;29;20188;-81
2023/01/06 01:09:35;;;;;;;23.93;7.87;;;7.80;99.90;;;;;;4863775;29;20249;-81
2023/01/06 01:12:13;;;;;;;22.23;8.63;;;7.90;99.90;;;;;;4863523;29;20643;-81
2023/01/06 01:14:46;;;;;;;21.63;6.93;;;7.90;99.90;;;;;;4863481;29;20224;-82
2023/01/06 01:17:18;;;;;;;20.40;6.90;;;7.80;99.90;;;;;;4863511;29;20515;-81
2023/01/06 01:19:44;;;;;;;18.97;7.10;;;7.80;99.90;;;;;;4863509;29;20620;-81
2023/01/06 01:22:10;;;;;;;17.57;6.93;;;7.90;99.90;;;;;;4862826;29;20237;-81
2023/01/06 01:24:37;;;;;;;21.77;6.50;;;7.80;99.90;;;;;;4863306;29;20520;-81
2023/01/06 01:27:03;;;;;;;24.00;7.17;;;7.80;99.90;;;;;;4863212;29;20245;-82
2023/01/06 01:29:29;;;;;;;23.40;7.07;;;7.80;99.90;;;;;;4863476;29;20185;-82
2023/01/06 01:31:55;;;;;;;15.23;6.27;;;7.90;99.90;;;;;;4863026;29;20698;-82
2023/01/06 01:34:22;;;;;;;19.42;6.22;;;7.80;99.90;;;;;;4863360;29;20582;-81
2023/01/06 01:36:49;;;;;;;20.10;6.75;;;7.80;99.90;;;;;;4846460;29;20197;-81
2023/01/06 01:39:17;;;;;;;17.93;6.97;;;7.90;99.90;;;;;;4863116;29;20181;-82
2023/01/06 01:41:43;;;;;;;19.43;6.87;;;7.90;99.90;;;;;;4863537;29;20228;-83
2023/01/06 01:44:46;;;;;;;17.07;6.77;;;7.90;99.90;;;;;;4862485;29;20275;-82
2023/01/06 01:47:17;;;;;;;21.07;6.63;;;7.90;99.90;;;;;;4845430;29;20185;-82
2023/01/06 01:49:44;;;;;;;19.03;6.27;;;7.90;99.90;;;;;;4862887;29;20180;-82
2023/01/06 01:52:11;;;;;;;16.73;6.40;;;7.90;99.90;;;;;;4862340;29;20556;-82
2023/01/06 01:54:38;;;;;;;16.90;6.38;;;7.90;99.90;;;;;;4862844;29;20233;-82
2023/01/06 01:57:22;;;;;;;18.13;7.00;;;7.90;99.90;;;;;;4862857;29;20188;-82
2023/01/06 01:59:48;;;;;;;21.57;5.97;;;7.90;99.90;;;;;;4861407;29;20220;-82
2023/01/06 02:02:16;;;;;;;25.10;6.40;;;7.90;99.90;;;;;;4845674;29;20185;-82
2023/01/06 02:04:47;;;;;;;18.73;6.20;;;8.00;99.90;;;;;;4862756;29;20177;-81
2023/01/06 02:07:12;;;;;;;17.13;6.00;;;8.00;99.90;;;;;;4861463;29;20215;-82
2023/01/06 02:10:04;;;;;;;21.57;5.83;;;8.00;99.90;;;;;;4862664;29;20626;-83
2023/01/06 02:12:30;;;;;;;23.77;6.37;;;8.00;99.90;;;;;;4862467;29;20227;-81
2023/01/06 02:14:56;;;;;;;19.83;5.90;;;8.00;99.90;;;;;;4862262;29;20284;-82
2023/01/06 02:17:59;;;;;;;18.97;5.83;;;8.00;99.90;;;;;;4862141;29;20176;-81
2023/01/06 02:20:46;;;;;;;19.10;6.33;;;8.00;99.90;;;;;;4862437;29;20167;-82
2023/01/06 02:23:15;;;;;;;18.10;6.40;;;8.10;99.90;;;;;;4845637;29;20189;-82
2023/01/06 02:26:02;;;;;;;16.70;6.67;;;8.10;99.90;;;;;;4861817;29;20204;-81
2023/01/06 02:28:46;;;;;;;20.70;6.97;;;8.10;99.90;;;;;;4862239;29;20187;-82
2023/01/06 02:31:33;;;;;;;25.20;6.70;;;8.10;99.90;;;;;;4845528;29;20661;-81
2023/01/06 02:34:20;;;;;;;17.10;6.63;;;8.10;99.90;;;;;;4862093;29;20196;-81
2023/01/06 02:37:13;;;;;;;21.43;6.77;;;8.10;99.90;;;;;;4844953;29;20187;-82
2023/01/06 02:39:48;;;;;;;17.67;6.27;;;8.10;99.90;;;;;;4862083;29;20260;-82
2023/01/06 02:42:49;;;;;;;21.17;6.20;;;8.10;99.90;;;;;;4861136;29;20188;-82
2023/01/06 02:45:24;;;;;;;17.40;6.47;;;8.10;99.90;;;;;;4862076;29;20171;-82
2023/01/06 02:48:21;;;;;;;22.17;6.20;;;8.10;99.90;;;;;;4861884;29;20176;-82
2023/01/06 02:51:02;;;;;;;14.00;5.87;;;8.00;99.90;;;;;;4861894;29;20205;-81
2023/01/06 02:53:49;;;;;;;21.80;6.87;;;8.10;99.90;;;;;;4845796;29;20173;-82
2023/01/06 02:56:16;;;;;;;15.23;6.13;;;8.10;99.90;;;;;;4861456;29;20177;-82
2023/01/06 02:58:51;;;;;;;15.93;6.57;;;8.10;99.90;;;;;;4861511;29;20188;-82
2023/01/06 03:01:39;;;;;;;17.80;5.70;;;8.00;99.90;;;;;;4862062;29;20172;-82
2023/01/06 03:04:10;;;;;;;14.47;5.53;;;8.10;99.90;;;;;;4860692;29;20188;-82
2023/01/06 03:06:43;;;;;;;14.03;6.10;;;8.10;99.90;;;;;;4861641;29;20223;-82
2023/01/06 03:09:13;;;;;;;16.30;5.87;;;8.10;99.90;;;;;;4861801;29;20245;-82
2023/01/06 03:11:40;;;;;;;15.67;5.53;;;8.00;99.90;;;;;;4861433;29;20280;-82
2023/01/06 03:14:21;;;;;;;16.23;5.60;;;8.10;99.90;;;;;;4861411;29;20228;-82
2023/01/06 03:16:46;;;;;;;16.57;5.17;;;8.00;99.90;;;;;;4861740;29;20192;-82
2023/01/06 03:19:13;;;;;;;15.70;6.23;;;8.10;99.90;;;;;;4844922;29;20457;-82
2023/01/06 03:21:42;;;;;;;14.27;5.70;;;8.00;99.90;;;;;;4861547;29;20211;-82
2023/01/06 03:24:09;;;;;;;12.97;6.27;;;8.00;99.90;;;;;;4861569;29;20668;-82
2023/01/06 03:26:37;;;;;;;16.13;6.10;;;8.00;99.90;;;;;;4861129;29;20612;-82
2023/01/06 03:29:07;;;;;;;18.13;5.50;;;8.00;99.90;;;;;;4861600;29;20207;-82
2023/01/06 03:32:25;;;;;;;16.50;6.00;;;8.00;99.90;;;;;;4861344;29;20260;-81
2023/01/06 03:35:23;;;;;;;13.13;5.70;;;8.10;99.90;;;;;;4831940;29;20279;-82
2023/01/06 03:37:55;;;;;;;19.17;6.10;;;8.00;99.90;;;;;;4836925;29;20193;-82
2023/01/06 03:40:45;;;;;;;18.70;6.33;;;8.10;99.90;;;;;;4861120;29;20226;-82
2023/01/06 03:43:32;;;;;;;16.50;6.23;;;8.10;99.90;;;;;;4861272;29;20236;-82
2023/01/06 03:46:33;;;;;;;15.90;6.00;;;8.10;99.90;;;;;;4861228;29;20730;-82
2023/01/06 03:49:30;;;;;;;18.80;6.17;;;8.10;99.90;;;;;;4861315;29;20175;-81
2023/01/06 03:52:06;;;;;;;11.83;5.83;;;8.10;99.90;;;;;;4849846;29;20228;-82
2023/01/06 03:54:53;;;;;;;17.77;6.30;;;8.10;99.90;;;;;;4861108;29;20204;-81
2023/01/06 03:57:31;;;;;;;14.40;6.03;;;8.10;99.90;;;;;;4861006;29;20522;-82
2023/01/06 04:00:03;;;;;;;14.80;5.50;;;8.10;99.90;;;;;;4861221;29;20169;-82
2023/01/06 04:02:29;;;;;;;14.07;6.27;;;8.10;99.90;;;;;;4861290;29;20548;-81
2023/01/06 04:05:07;;;;;;;15.93;6.07;;;8.20;99.90;;;;;;4861065;29;20204;-82
2023/01/06 04:07:32;;;;;;;18.73;5.83;;;8.10;99.90;;;;;;4844769;29;20682;-82
2023/01/06 04:09:58;;;;;;;13.50;5.20;;;8.10;99.90;;;;;;4861164;29;20214;-82
2023/01/06 04:12:39;;;;;;;12.63;5.17;;;8.10;99.90;;;;;;4864278;29;20231;-82
2023/01/06 04:15:05;;;;;;;16.00;5.37;;;8.10;99.90;;;;;;4864310;29;20235;-81
2023/01/06 04:17:30;;;;;;;13.20;5.17;;;8.10;99.90;;;;;;4864236;29;20185;-82
2023/01/06 04:19:56;;;;;;;13.60;5.90;;;8.10;99.90;;;;;;4864606;29;20185;-81
2023/01/06 04:22:22;;;;;;;14.33;6.00;;;8.10;99.90;;;;;;4864481;29;20181;-82
2023/01/06 04:24:47;;;;;;;12.47;5.10;;;8.10;99.90;;;;;;4864404;29;20516;-82
2023/01/06 04:27:13;;;;;;;16.97;5.30;;;8.10;99.90;;;;;;4864092;29;20188;-82
2023/01/06 04:29:38;;;;;;;14.33;5.40;;;8.10;99.90;;;;;;4864474;29;20189;-81
2023/01/06 04:32:04;;;;;;;11.80;4.50;;;8.20;99.90;;;;;;4864214;29;20216;-81
2023/01/06 04:34:30;;;;;;;11.63;4.20;;;8.20;99.90;;;;;;4864243;29;20211;-82
2023/01/06 04:36:56;;;;;;;12.70;4.80;;;8.20;99.90;;;;;;4864063;29;20651;-82
2023/01/06 04:39:21;;;;;;;9.60;4.40;;;8.20;99.90;;;;;;4864535;29;20268;-82
2023/01/06 04:41:47;;;;;;;11.00;5.33;;;8.30;99.90;;;;;;4863891;29;20189;-81
2023/01/06 04:44:12;;;;;;;14.10;4.70;;;8.30;99.90;;;;;;4864396;29;20196;-80
2023/01/06 04:46:38;;;;;;;10.63;4.20;;;8.30;99.90;;;;;;4863909;29;20535;-81
2023/01/06 04:49:04;;;;;;;8.17;4.13;;;8.30;99.90;;;;;;4847482;29;20220;-81
2023/01/06 04:51:30;;;;;;;7.73;4.10;;;8.30;99.90;;;;;;4864013;29;20213;-81
2023/01/06 04:53:55;;;;;;;9.50;3.83;;;8.30;99.90;;;;;;4863855;29;20582;-81
2023/01/06 04:56:21;;;;;;;9.10;3.40;;;8.40;99.90;;;;;;4863863;29;20188;-82
2023/01/06 04:58:47;;;;;;;7.17;3.50;;;8.40;99.90;;;;;;4847283;29;20237;-82
2023/01/06 05:01:13;;;;;;;10.50;3.73;;;8.40;99.90;;;;;;4863713;29;20180;-81
2023/01/06 05:03:39;;;;;;;10.07;3.17;;;8.40;99.90;;;;;;4863974;29;20200;-81
2023/01/06 05:06:10;;;;;;;8.93;3.13;;;8.40;99.90;;;;;;4863734;29;20181;-81
2023/01/06 05:08:40;;;;;;;8.03;3.40;;;8.40;99.90;;;;;;4863750;29;20176;-82
2023/01/06 05:11:08;;;;;;;5.93;2.07;;;8.40;99.90;;;;;;4863637;29;20256;-81
2023/01/06 05:13:34;;;;;;;6.80;2.60;;;8.40;99.90;;;;;;4863407;29;20200;-80
2023/01/06 05:16:00;;;;;;;5.87;2.17;;;8.50;99.90;;;;;;4863245;29;20229;-81
2023/01/06 05:18:25;;;;;;;6.73;2.00;;;8.50;99.90;;;;;;4863552;29;20188;-81
2023/01/06 05:20:54;;;;;;;5.10;2.03;;;8.60;99.90;;;;;;4863553;29;20173;-81
2023/01/06 05:23:21;;;;;;;2.40;1.77;;;8.60;99.90;;;;;;4862817;29;20642;-81
2023/01/06 05:25:50;;;;;;;4.07;1.80;;;8.70;99.90;;;;;;4863245;29;20255;-81
2023/01/06 05:28:17;;;;;;;6.90;1.60;;;8.60;99.90;;;;;;4863298;29;20172;-82
2023/01/06 05:30:43;;;;;;;6.63;1.63;;;8.70;99.90;;;;;;4846719;29;20607;-82
2023/01/06 05:33:09;;;;;;;2.20;1.47;;;8.70;99.90;;;;;;4846737;29;20283;-81
2023/01/06 05:35:35;;;;;;;8.80;1.97;;;8.70;99.90;;;;;;4863482;29;20177;-81
2023/01/06 05:38:01;;;;;;;3.37;1.90;;;8.80;99.90;;;;;;4863199;29;20271;-81
2023/01/06 05:40:27;;;;;;;3.70;2.27;;;8.80;99.90;;;;;;4863152;29;20204;-81
2023/01/06 05:42:54;;;;;;;8.33;2.67;;;8.80;99.90;;;;;;4862909;29;20207;-81
2023/01/06 05:45:21;;;;;;;4.90;2.05;;;8.80;99.90;;;;;;4862988;29;20212;-81
2023/01/06 05:47:46;;;;;;;7.67;2.30;;;8.80;99.90;;;;;;4863014;29;20672;-81
2023/01/06 05:50:12;;;;;;;4.20;2.30;;;8.80;99.90;;;;;;4863252;29;20268;-81
2023/01/06 05:52:38;;;;;;;5.23;2.30;;;8.80;99.90;;;;;;4862803;29;20541;-81
2023/01/06 05:55:04;;;;;;;5.10;2.20;;;8.80;99.90;;;;;;4862909;29;20196;-80
2023/01/06 05:57:32;;;;;;;5.17;2.03;;;8.90;99.90;;;;;;4862567;29;20312;-80
2023/01/06 05:59:58;;;;;;;4.23;2.00;;;8.90;99.90;;;;;;4864031;29;20181;-81
2023/01/06 06:02:23;;;;;;;5.53;1.60;;;8.90;99.90;;;;;;4863002;29;20200;-81
2023/01/06 06:04:50;;;;;;;2.20;1.43;;;9.00;99.90;;;;;;4861797;29;20672;-81
2023/01/06 06:07:15;;;;;;;5.40;1.53;;;9.00;99.90;;;;;;4862663;29;20176;-80
2023/01/06 06:09:41;;;;;;;5.80;1.70;;;9.00;99.90;;;;;;4862601;29;20189;-80
2023/01/06 06:12:07;;;;;;;4.70;1.60;;;9.00;99.90;;;;;;4845851;29;20555;-80
2023/01/06 06:14:33;;;;;;;4.10;1.30;;;9.00;99.90;;;;;;4862321;29;20727;-79
2023/01/06 06:16:58;;;;;;;3.77;1.50;;;9.00;99.90;;;;;;4862463;29;20189;-80
2023/01/06 06:19:24;;;;;;;2.50;1.00;;;9.00;99.90;;;;;;4862503;29;20523;-79
2023/01/06 06:21:51;;;;;;;1.47;1.00;;;9.10;99.90;;;;;;4865678;29;20511;-80
2023/01/06 06:24:17;;;;;;;1.58;0.80;;;9.10;99.90;;;;;;4880801;29;20263;-80
2023/01/06 06:26:42;;;;;;;3.47;1.20;;;9.10;99.90;;;;;;4867200;29;20212;-81
2023/01/06 06:29:08;;;;;;;7.93;1.20;;;9.10;99.90;;;;;;4862419;29;20271;-80
2023/01/06 06:31:34;;;;;;;3.27;0.90;;;9.10;99.90;;;;;;4874243;29;20216;-80
2023/01/06 06:34:01;;;;;;;2.87;0.90;;;9.10;99.90;;;;;;4879962;29;20254;-80
2023/01/06 06:36:27;;;;;;;1.93;1.00;;;9.10;99.90;;;;;;4880508;29;20312;-80
2023/01/06 06:38:53;;;;;;;1.83;1.00;;;9.10;99.90;;;;;;4880917;29;20616;-79
2023/01/06 06:41:21;;;;;;;2.97;1.00;;;9.10;99.90;;;;;;4880640;29;20223;-81
2023/01/06 06:43:50;;;;;;;2.17;0.80;;;9.10;99.90;;;;;;4876039;29;20234;-80
2023/01/06 06:46:17;;;;;;;2.80;1.00;;;9.10;99.90;;;;;;4862014;29;20185;-80
2023/01/06 06:48:43;;;;;;;3.20;0.90;;;9.20;99.90;;;;;;4862071;29;20928;-80
2023/01/06 06:51:11;;;;;;;3.67;0.80;;;9.10;99.90;;;;;;4861969;29;20216;-80
2023/01/06 06:53:38;;;;;;;6.80;1.17;;;9.20;99.90;;;;;;4862046;29;20222;-80
2023/01/06 06:56:05;;;;;;;3.40;0.90;;;9.20;99.90;;;;;;4861626;29;20237;-80
2023/01/06 06:58:31;;;;;;;5.90;1.17;;;9.20;99.90;;;;;;4861782;29;20200;-81
2023/01/06 07:00:57;;;;;;;4.17;0.90;;;9.20;99.90;;;;;;4867370;29;20250;-82
2023/01/06 07:03:24;;;;;;;3.40;1.10;;;9.10;99.90;;;;;;4861874;29;20184;-82
2023/01/06 07:05:51;;;;;;;3.35;0.90;;;9.20;99.90;;;;;;4861562;29;20185;-80
2023/01/06 07:08:17;;;;;;;2.50;1.10;;;9.20;99.90;;;;;;4861626;29;20263;-81
2023/01/06 07:10:43;;;;;;;2.60;0.80;;;9.20;99.90;;;;;;4861647;29;20184;-82
2023/01/06 07:13:09;;;;;;;3.17;0.90;;;9.10;99.90;;;;;;4861810;29;20168;-82
2023/01/06 07:15:35;;;;;;;1.73;0.90;;;9.10;99.90;;;;;;4857137;29;20303;-82
2023/01/06 07:18:02;;;;;;;1.67;0.80;;;9.20;99.90;;;;;;4861666;29;20192;-82
2023/01/06 07:20:29;;;;;;;3.53;1.00;;;9.20;99.90;;;;;;4861371;29;20181;-81
2023/01/06 07:22:55;;;;;;;1.30;0.90;;;9.20;99.90;;;;;;4861478;29;20236;-82
2023/01/06 07:25:21;;;;;;;4.23;1.37;;;9.20;99.90;;;;;;4860229;29;20197;-82
2023/01/06 07:27:55;;;;;;;3.53;1.07;;;9.20;99.90;;;;;;4861382;29;20185;-81
2023/01/06 07:30:23;;;;;;;3.47;0.90;;;9.20;99.90;;;;;;4861516;29;20196;-81
2023/01/06 07:32:49;;;;;;;4.72;1.13;;;9.30;99.90;;;;;;4860984;29;20216;-81
2023/01/06 07:35:15;;;;;;;2.22;0.90;;;9.30;99.90;;;;;;4861591;29;20640;-79
2023/01/06 07:37:41;;;;;;;1.93;0.93;;;9.20;99.90;;;;;;4861293;29;20180;-80
2023/01/06 07:40:07;;;;;;;4.03;1.00;;;9.30;99.90;;;;;;4861383;29;20183;-79
2023/01/06 07:42:35;;;;;;;1.80;1.00;;;9.20;99.90;;;;;;4861387;29;20177;-80
2023/01/06 07:45:01;;;;;;;3.58;0.85;;;9.20;99.90;;;;;;4861307;29;20181;-80
2023/01/06 07:47:26;;;;;;;1.63;0.80;;;9.20;99.90;;;;;;4865247;29;20196;-79
2023/01/06 07:49:52;;;;;;;4.53;1.75;;;9.30;99.90;;;;;;4865030;29;20639;-79
2023/01/06 07:52:17;;;;;;;2.90;0.90;;;9.40;99.90;;;;;;4864776;29;20212;-79
2023/01/06 07:54:43;;;;;;;3.05;0.90;;;9.40;99.90;;;;;;4865059;29;20737;-80
2023/01/06 07:57:09;;;;;;;2.30;0.95;;;9.40;99.90;;;;;;4865226;29;20672;-80
2023/01/06 07:59:34;;;;;;;2.97;1.13;;;9.50;99.90;;;;;;4864794;29;20189;-80
2023/01/06 08:02:00;;;;;;;2.33;1.00;;;9.40;99.90;;;;;;4864966;29;20169;-80
2023/01/06 08:04:26;;;;;;;3.20;1.00;;;9.40;99.90;;;;;;4864675;29;20185;-79
2023/01/06 08:06:51;;;;;;;2.92;0.80;;;9.40;99.90;;;;;;4863050;29;20220;-80
2023/01/06 08:09:17;;;;;;;1.40;0.90;;;9.40;99.90;;;;;;4862617;29;20192;-79
2023/01/06 08:11:43;;;;;;;4.35;1.00;;;9.40;99.90;;;;;;4863071;29;20220;-81
2023/01/06 08:14:10;;;;;;;1.85;0.90;;;9.40;99.90;;;;;;4864309;29;20236;-80
2023/01/06 08:16:38;;;;;;;2.63;1.20;;;9.40;99.90;;;;;;4864140;29;20208;-81
2023/01/06 08:19:04;;;;;;;2.43;1.30;;;9.40;99.90;;;;;;4864460;29;20216;-80
2023/01/06 08:21:29;;;;;;;2.67;1.27;;;9.40;99.90;;;;;;4863850;29;20215;-80
2023/01/06 08:23:55;;;;;;;3.15;1.67;;;9.40;99.90;;;;;;4864285;29;20184;-80
2023/01/06 08:26:21;;;;;;;4.40;1.52;;;9.50;99.90;;;;;;4864358;29;20204;-81
2023/01/06 08:28:46;;;;;;;3.67;1.40;;;9.50;99.90;;;;;;4864771;29;20180;-80
2023/01/06 08:31:17;;;;;;;6.38;1.60;;;9.50;99.90;;;;;;4864265;29;20565;-80
2023/01/06 08:33:43;;;;;;;4.47;1.77;;;9.50;99.90;;;;;;4864188;29;20183;-79
2023/01/06 08:36:12;;;;;;;2.00;1.40;;;9.50;99.90;;;;;;4863884;29;20271;-81
2023/01/06 08:38:38;;;;;;;3.83;1.57;;;9.40;99.90;;;;;;4863060;29;20628;-80
2023/01/06 08:41:05;;;;;;;3.78;1.80;;;9.40;99.90;;;;;;4864320;29;20240;-80
2023/01/06 08:43:30;;;;;;;2.20;1.40;;;9.50;99.90;;;;;;4864156;29;20165;-79
2023/01/06 08:46:05;;;;;;;4.47;1.60;;;9.60;99.90;;;;;;4847441;29;20203;-80
2023/01/06 08:48:32;;;;;;;3.03;1.40;;;9.60;99.90;;;;;;4864035;29;20184;-80
2023/01/06 08:51:03;;;;;;;4.03;1.45;;;9.50;99.90;;;;;;4847150;29;20208;-79
2023/01/06 08:53:30;;;;;;;2.35;1.40;;;9.50;99.90;;;;;;4864244;29;20578;-79
2023/01/06 08:55:55;;;;;;;5.75;1.63;;;9.60;99.90;;;;;;4863998;29;20184;-80
2023/01/06 08:58:21;;;;;;;4.70;1.57;;;9.50;99.90;;;;;;4863230;29;20621;-81
2023/01/06 09:00:47;;;;;;;3.30;1.60;;;9.50;99.90;;;;;;4864086;29;20495;-80
2023/01/06 09:03:12;;;;;;;3.25;1.67;;;9.50;99.90;;;;;;4863695;29;20241;-80
2023/01/06 09:05:38;;;;;;;6.43;1.65;;;9.50;99.90;;;;;;4844182;29;20184;-79
2023/01/06 09:08:04;;;;;;;4.80;1.50;;;9.50;99.90;;;;;;4862757;29;20191;-79
2023/01/06 09:10:29;;;;;;;3.70;1.48;;;9.50;99.90;;;;;;4863443;29;20185;-80
2023/01/06 09:12:55;;;;;;;5.35;1.70;;;9.50;99.90;;;;;;4863624;29;20177;-80
2023/01/06 09:15:21;;;;;;;1.70;1.27;;;9.50;99.90;;;;;;4863396;29;20688;-80
2023/01/06 09:17:46;;;;;;;2.13;1.27;;;9.60;99.90;;;;;;4863358;29;20176;-80
2023/01/06 09:20:12;;;;;;;3.83;1.70;;;9.60;99.90;;;;;;4863595;29;20219;-81
2023/01/06 09:22:38;;;;;;;4.68;1.42;;;9.70;99.90;;;;;;4863454;29;20185;-81
2023/01/06 09:25:04;;;;;;;2.13;1.27;;;9.70;99.90;;;;;;4863298;29;20636;-79
2023/01/06 09:27:29;;;;;;;4.25;1.23;;;9.80;99.90;;;;;;4863581;29;20181;-80
2023/01/06 09:29:55;;;;;;;1.83;1.20;;;9.90;99.90;;;;;;4863448;29;20631;-80
2023/01/06 09:32:21;;;;;;;3.15;1.45;;;9.90;99.90;;;;;;4863329;29;20551;-79
2023/01/06 09:34:46;;;;;;;3.28;1.88;;;10.00;99.90;;;;;;4862996;29;20233;-78
2023/01/06 09:37:12;;;;;;;2.28;1.08;;;10.00;99.90;;;;;;4863236;29;20515;-80
2023/01/06 09:39:38;;;;;;;4.82;1.58;;;10.00;99.90;;;;;;4863439;29;20620;-81
2023/01/06 09:42:38;;;;;;;2.17;1.15;;;10.00;99.90;;;;;;4863363;29;20625;-80
2023/01/06 09:45:09;;;;;;;3.58;1.38;;;10.00;99.90;;;;;;4862478;29;20196;-80
2023/01/06 09:47:43;;;;;;;2.90;1.20;;;10.00;99.90;;;;;;4845952;29;20177;-80
2023/01/06 09:50:19;;;;;;;3.03;1.67;;;10.00;99.90;;;;;;4862726;29;20527;-80
2023/01/06 09:52:50;;;;;;;4.10;1.33;;;10.00;99.90;;;;;;4862785;29;20204;-81
2023/01/06 09:55:29;;;;;;;3.40;1.27;;;10.10;99.90;;;;;;4846256;29;20217;-80
2023/01/06 09:57:59;;;;;;;2.58;1.10;;;10.10;99.90;;;;;;4862737;29;20187;-80
2023/01/06 10:00:31;;;;;;;1.70;1.02;;;10.10;99.90;;;;;;4862989;29;20177;-81
2023/01/06 10:02:57;;;;;;;2.60;1.00;;;10.20;99.90;;;;;;4862744;29;20173;-80
2023/01/06 10:05:57;;;;;;;4.00;1.30;;;10.20;99.90;;;;;;4862359;29;20492;-80
2023/01/06 10:08:34;;;;;;;3.85;1.60;;;10.20;99.90;;;;;;4840677;29;20209;-79
2023/01/06 10:11:26;;;;;;;3.00;1.30;;;10.10;99.90;;;;;;4862362;29;20231;-80
2023/01/06 10:14:02;;;;;;;5.30;1.10;;;10.10;99.90;;;;;;4862181;29;20181;-79
2023/01/06 10:16:50;;;;;;;4.57;1.20;;;10.10;99.90;;;;;;4844549;29;20643;-80
2023/01/06 10:19:59;;;;;;;3.90;1.25;;;10.10;99.90;;;;;;4862689;29;20201;-80
2023/01/06 10:22:44;;;;;;;3.45;0.95;;;10.00;99.90;;;;;;4862414;29;20195;-81
2023/01/06 10:25:10;;;;;;;0.95;0.80;;;10.00;99.90;;;;;;4862237;29;20192;-81
2023/01/06 10:27:40;;;;;;;2.17;0.77;;;9.90;99.90;;;;;;4862457;29;20216;-81
2023/01/06 10:30:17;;;;;;;4.68;1.25;;;9.90;99.90;;;;;;4862338;29;20177;-79
2023/01/06 10:32:45;;;;;;;6.05;1.13;;;9.90;99.90;;;;;;4862348;29;20225;-81
2023/01/06 10:35:14;;;;;;;3.08;0.80;;;9.90;99.90;;;;;;4845401;29;20291;-81
2023/01/06 10:37:43;;;;;;;3.15;0.90;;;9.90;99.90;;;;;;4862114;29;20180;-82
2023/01/06 10:40:21;;;;;;;3.50;1.00;;;9.90;99.90;;;;;;4862382;29;20192;-80
2023/01/06 10:43:07;;;;;;;2.05;0.80;;;9.80;99.90;;;;;;4861967;29;20201;-80
2023/01/06 10:45:41;;;;;;;2.40;0.98;;;9.80;99.90;;;;;;4862216;29;20176;-80
2023/01/06 10:48:12;;;;;;;2.93;0.80;;;9.80;99.90;;;;;;4861926;29;20617;-81
2023/01/06 10:50:37;;;;;;;0.70;0.70;;;9.70;99.90;;;;;;4861727;29;20220;-81
2023/01/06 10:53:04;;;;;;;2.08;0.88;;;9.70;99.90;;;;;;4862102;29;20295;-80
2023/01/06 10:55:33;;;;;;;3.95;1.08;;;9.60;99.90;;;;;;4861839;29;20181;-79
2023/01/06 10:58:29;;;;;;;2.15;0.80;;;9.60;99.90;;;;;;4861871;29;20192;-79
2023/01/06 11:00:56;;;;;;;4.60;1.20;;;9.60;99.90;;;;;;4861973;29;20251;-80
2023/01/06 11:03:22;;;;;;;2.97;0.80;;;9.60;99.90;;;;;;4861669;29;20214;-80
2023/01/06 11:05:59;;;;;;;2.92;0.80;;;9.70;99.90;;;;;;4861618;29;20219;-80
2023/01/06 11:08:25;;;;;;;1.50;1.00;;;9.70;99.90;;;;;;4861768;29;20184;-79
2023/01/06 11:10:53;;;;;;;1.23;0.73;;;9.70;99.90;;;;;;4845453;29;20187;-80
2023/01/06 11:13:34;;;;;;;3.80;0.60;;;9.80;99.90;;;;;;4861689;29;20317;-81
2023/01/06 11:16:07;;;;;;;1.92;0.82;;;9.80;99.90;;;;;;4861467;29;20735;-80
2023/01/06 11:18:38;;;;;;;4.90;0.90;;;9.80;99.90;;;;;;4861677;29;20181;-79
2023/01/06 11:21:15;;;;;;;1.45;0.73;;;9.80;99.90;;;;;;4861114;29;20188;-80
2023/01/06 11:23:43;;;;;;;1.30;1.00;;;9.90;99.90;;;;;;4861560;29;20185;-80
2023/01/06 11:26:11;;;;;;;1.08;0.80;;;9.80;99.90;;;;;;4861565;29;20185;-81
2023/01/06 11:28:41;;;;;;;1.98;1.02;;;9.80;99.90;;;;;;4861686;29;20207;-80
2023/01/06 11:31:13;;;;;;;3.67;1.10;;;9.70;99.90;;;;;;4861562;29;20353;-81
2023/01/06 11:34:00;;;;;;;3.22;1.00;;;9.70;99.90;;;;;;4861784;29;20189;-81
2023/01/06 11:36:29;;;;;;;2.58;0.93;;;9.70;99.90;;;;;;4860707;29;20207;-81
2023/01/06 11:39:11;;;;;;;1.23;0.85;;;9.70;99.90;;;;;;4861390;29;20180;-81
2023/01/06 11:41:39;;;;;;;4.13;1.00;;;9.70;99.90;;;;;;4861604;29;20177;-81
2023/01/06 11:44:24;;;;;;;1.87;0.97;;;9.70;99.90;;;;;;4861556;29;20621;-80
2023/01/06 11:46:54;;;;;;;3.00;1.02;;;9.70;99.90;;;;;;4845192;29;20609;-81
2023/01/06 11:49:37;;;;;;;5.30;1.00;;;9.70;99.90;;;;;;4859966;29;20197;-81
2023/01/06 11:52:31;;;;;;;5.55;0.98;;;9.70;99.90;;;;;;4861301;29;20314;-81
2023/01/06 11:55:17;;;;;;;1.15;1.00;;;9.70;99.90;;;;;;4861179;29;20177;-80
2023/01/06 11:58:22;;;;;;;2.60;1.00;;;9.70;99.90;;;;;;4831557;29;20187;-81
2023/01/06 12:01:14;;;;;;;1.57;1.10;;;9.70;99.90;;;;;;4789177;29;20594;-81
2023/01/06 12:03:43;;;;;;;1.67;1.00;;;9.70;99.90;;;;;;4860758;29;20200;-81
2023/01/06 12:06:32;;;;;;;2.05;1.05;;;9.80;99.90;;;;;;4860376;29;20303;-80
2023/01/06 12:09:13;;;;;;;2.28;1.00;;;9.80;99.90;;;;;;4861384;29;20191;-81
2023/01/06 12:11:48;;;;;;;2.13;1.10;;;9.80;99.90;;;;;;4861199;29;20546;-80
2023/01/06 12:14:23;;;;;;;2.17;1.30;;;9.80;99.90;;;;;;4860799;29;20700;-79
2023/01/06 12:17:10;;;;;;;1.65;0.73;;;9.90;99.90;;;;;;4844433;29;20290;-81
2023/01/06 12:20:01;;;;;;;1.00;0.90;;;9.90;99.90;;;;;;4861162;29;20165;-81
2023/01/06 12:22:34;;;;;;;1.63;1.20;;;9.90;99.90;;;;;;4861491;29;20181;-81
2023/01/06 12:25:02;;;;;;;1.17;1.08;;;10.00;99.90;;;;;;4844495;29;20180;-81
2023/01/06 12:27:40;;;;;;;3.38;1.13;;;10.10;99.90;;;;;;4860827;29;20574;-81
2023/01/06 12:30:16;;;;;;;1.23;1.13;;;10.10;99.90;;;;;;4859888;29;20212;-81
2023/01/06 12:32:47;;;;;;;1.10;1.00;;;10.20;99.90;;;;;;4863366;29;20647;-82
2023/01/06 12:35:18;;;;;;;1.70;1.30;;;10.20;99.90;;;;;;4864015;29;20740;-81
2023/01/06 12:37:54;;;;;;;1.20;1.10;;;10.30;99.90;;;;;;4863986;29;20185;-80
2023/01/06 12:40:43;;;;;;;1.40;1.00;;;10.30;99.90;;;;;;4863163;29;20187;-81
2023/01/06 12:43:22;;;;;;;1.58;1.00;;;10.40;99.90;;;;;;4864228;29;20198;-81
2023/01/06 12:46:01;;;;;;;1.23;1.00;;;10.50;99.90;;;;;;4864090;29;20185;-79
2023/01/06 12:48:40;;;;;;;1.70;1.20;;;10.70;99.90;;;;;;4864495;29;20199;-81
2023/01/06 12:51:24;;;;;;;1.60;1.10;;;10.70;99.90;;;;;;4863855;29;20200;-81
2023/01/06 12:53:58;;;;;;;4.07;1.20;;;10.60;99.90;;;;;;4864014;29;20181;-82
2023/01/06 12:56:46;;;;;;;1.30;1.00;;;10.60;99.90;;;;;;4863891;29;20253;-79
2023/01/06 12:59:28;;;;;;;1.48;1.10;;;10.60;99.90;;;;;;4863973;29;20165;-81
2023/01/06 13:02:35;;;;;;;1.45;1.00;;;10.60;99.90;;;;;;4864009;29;20550;-81
2023/01/06 13:05:27;;;;;;;1.00;0.90;;;10.60;99.90;;;;;;4863709;29;20196;-80
2023/01/06 13:08:04;;;;;;;1.30;1.10;;;10.80;99.90;;;;;;4863754;29;20173;-82
2023/01/06 13:10:42;;;;;;;1.92;1.10;;;10.60;99.90;;;;;;4863793;29;20173;-81
2023/01/06 13:13:54;;;;;;;1.83;0.90;;;10.70;99.90;;;;;;4863659;29;20300;-81
2023/01/06 13:16:41;;;;;;;1.13;0.90;;;10.60;99.90;;;;;;4832293;29;20208;-82